Time;durP1;ratioP1;P1;durP2;ratioP2;P2;SDS_P1;SDS_P2;PMS_P1;PMS_P2;Temp;Humidity;BMP_temperature;BMP_pressure;BME280_temperature;BME280_humidity;BME280_pressure;Samples;Min_cycle;Max_cycle;Signal;HPM_P1;HPM_P2
2022/03/18 00:02:14;;;;;;;19.27;8.55;;;2.30;99.90;;;;;;6183650;23;20098;-77
2022/03/18 00:04:40;;;;;;;16.50;8.05;;;2.30;99.90;;;;;;6184062;23;20482;-77
2022/03/18 00:07:07;;;;;;;17.83;7.82;;;2.40;99.90;;;;;;6184269;23;20016;-77
2022/03/18 00:09:33;;;;;;;16.33;7.47;;;2.20;99.90;;;;;;6138138;23;20079;-77
2022/03/18 00:11:59;;;;;;;13.98;7.22;;;2.60;99.90;;;;;;6154321;23;20027;-77
2022/03/18 00:14:25;;;;;;;18.35;6.63;;;2.30;99.90;;;;;;6153776;23;20527;-77
2022/03/18 00:16:51;;;;;;;11.80;6.50;;;2.40;99.90;;;;;;6179131;23;20052;-77
2022/03/18 00:19:17;;;;;;;17.85;6.95;;;2.90;99.90;;;;;;6154499;23;20017;-78
2022/03/18 00:21:43;;;;;;;17.60;6.32;;;2.90;99.90;;;;;;6154697;23;20209;-77
2022/03/18 00:24:09;;;;;;;15.32;6.97;;;2.70;99.90;;;;;;6129720;23;20024;-77
2022/03/18 00:26:35;;;;;;;17.00;6.68;;;3.10;99.90;;;;;;6156526;23;20028;-77
2022/03/18 00:29:01;;;;;;;20.33;6.50;;;2.80;99.90;;;;;;6131613;23;20473;-77
2022/03/18 00:31:29;;;;;;;20.92;6.57;;;2.90;99.90;;;;;;6155761;23;20024;-77
2022/03/18 00:33:55;;;;;;;13.35;6.30;;;3.30;99.90;;;;;;6155932;23;20056;-77
2022/03/18 00:36:21;;;;;;;12.20;6.28;;;3.00;99.90;;;;;;6127916;23;20017;-77
2022/03/18 00:38:47;;;;;;;15.13;7.00;;;3.10;99.90;;;;;;6129998;23;20361;-77
2022/03/18 00:41:13;;;;;;;13.98;6.40;;;3.00;99.90;;;;;;6131738;23;20322;-77
2022/03/18 00:43:39;;;;;;;20.50;6.63;;;2.90;99.90;;;;;;6155554;23;20040;-77
2022/03/18 00:46:06;;;;;;;16.48;6.57;;;3.00;99.90;;;;;;6156416;23;20475;-77
2022/03/18 00:54:00;;;;;;;13.90;6.20;;;3.00;99.90;;;;;;6155823;23;20048;-77
2022/03/18 00:56:27;;;;;;;16.30;6.85;;;2.90;99.90;;;;;;6156364;23;20019;-77
2022/03/18 00:58:52;;;;;;;17.67;7.43;;;2.90;99.90;;;;;;6155544;23;20021;-77
2022/03/18 01:01:18;;;;;;;20.73;7.63;;;2.90;99.90;;;;;;6155727;23;20024;-77
2022/03/18 01:03:44;;;;;;;16.15;7.30;;;2.90;99.90;;;;;;6155646;23;20013;-77
2022/03/18 01:06:10;;;;;;;20.17;7.50;;;2.90;99.90;;;;;;6156023;23;20013;-77
2022/03/18 01:08:35;;;;;;;19.38;7.63;;;2.80;99.90;;;;;;6131365;23;20120;-77
2022/03/18 01:11:04;;;;;;;17.98;7.15;;;2.90;99.90;;;;;;6131105;23;20075;-77
2022/03/18 01:13:29;;;;;;;20.02;8.00;;;2.80;99.90;;;;;;6155949;23;20021;-77
2022/03/18 01:15:55;;;;;;;17.27;7.13;;;2.80;99.90;;;;;;6155807;23;20013;-77
2022/03/18 01:18:21;;;;;;;22.50;7.40;;;2.80;99.90;;;;;;6155930;23;20353;-77
2022/03/18 01:20:47;;;;;;;17.65;7.50;;;2.80;99.90;;;;;;6131082;23;20107;-77
2022/03/18 01:23:13;;;;;;;20.75;8.55;;;2.80;99.90;;;;;;6131590;23;20414;-77
2022/03/18 01:25:39;;;;;;;16.83;7.82;;;2.80;99.90;;;;;;6155606;23;20024;-76
2022/03/18 01:28:06;;;;;;;15.90;7.78;;;2.80;99.90;;;;;;6131102;23;20016;-77
2022/03/18 01:30:32;;;;;;;12.57;7.15;;;2.70;99.90;;;;;;6131102;23;20289;-77
2022/03/18 01:33:02;;;;;;;17.77;7.22;;;2.70;99.90;;;;;;6155409;23;20021;-77
2022/03/18 01:35:28;;;;;;;18.58;8.13;;;2.90;99.90;;;;;;6155629;23;20097;-77
2022/03/18 01:37:54;;;;;;;15.65;7.40;;;2.60;99.90;;;;;;6155752;23;20441;-77
2022/03/18 01:40:20;;;;;;;13.57;7.43;;;2.60;99.90;;;;;;6155418;23;20013;-77
2022/03/18 01:42:46;;;;;;;15.80;8.07;;;2.60;99.90;;;;;;6131463;23;20139;-77
2022/03/18 01:45:11;;;;;;;21.55;8.38;;;2.70;99.90;;;;;;6131048;23;20112;-77
2022/03/18 01:47:42;;;;;;;17.73;8.45;;;2.50;99.90;;;;;;6131295;23;20021;-77
2022/03/18 01:50:15;;;;;;;20.02;8.82;;;2.50;99.90;;;;;;6130984;23;20071;-77
2022/03/18 01:52:42;;;;;;;17.58;9.57;;;2.50;99.90;;;;;;6155663;23;20043;-77
2022/03/18 01:55:08;;;;;;;15.30;8.27;;;2.50;99.90;;;;;;6155055;23;20016;-77
2022/03/18 01:57:33;;;;;;;23.10;9.85;;;2.50;99.90;;;;;;6155645;23;20017;-77
2022/03/18 02:00:00;;;;;;;27.52;8.93;;;2.50;99.90;;;;;;6130516;23;20530;-77
2022/03/18 02:02:26;;;;;;;20.00;9.45;;;2.50;99.90;;;;;;6130148;23;20024;-77
2022/03/18 02:04:52;;;;;;;20.58;8.38;;;2.50;99.90;;;;;;6155708;23;20053;-77
2022/03/18 02:07:18;;;;;;;16.23;8.70;;;2.50;99.90;;;;;;6155715;23;20095;-77
2022/03/18 02:09:47;;;;;;;22.83;9.18;;;2.40;99.90;;;;;;6154342;23;20040;-78
2022/03/18 02:12:13;;;;;;;22.50;8.93;;;2.80;99.90;;;;;;6155110;23;20540;-77
2022/03/18 02:14:41;;;;;;;23.80;10.43;;;2.50;99.90;;;;;;6155490;23;20072;-77
2022/03/18 02:17:08;;;;;;;23.65;9.55;;;2.40;99.90;;;;;;6155512;23;20013;-77
2022/03/18 02:19:35;;;;;;;19.00;9.77;;;2.40;99.90;;;;;;6155197;23;20017;-77
2022/03/18 02:22:05;;;;;;;30.45;9.88;;;2.50;99.90;;;;;;6130815;23;20028;-78
2022/03/18 02:24:31;;;;;;;24.10;9.23;;;2.60;99.90;;;;;;6155359;23;20043;-77
2022/03/18 02:26:57;;;;;;;20.65;9.88;;;2.50;99.90;;;;;;6130483;23;20107;-77
2022/03/18 02:29:24;;;;;;;22.10;10.10;;;2.40;99.90;;;;;;6155490;23;20100;-77
2022/03/18 02:31:50;;;;;;;22.02;9.23;;;2.40;99.90;;;;;;6154445;23;20021;-77
2022/03/18 02:34:16;;;;;;;18.45;8.75;;;2.30;99.90;;;;;;6131179;23;20282;-77
2022/03/18 02:36:42;;;;;;;18.92;9.35;;;2.40;99.90;;;;;;6155368;23;20017;-77
2022/03/18 02:39:08;;;;;;;24.25;10.00;;;2.30;99.90;;;;;;6154935;23;20032;-77
2022/03/18 02:41:34;;;;;;;18.23;9.30;;;2.30;99.90;;;;;;6154952;23;20017;-77
2022/03/18 02:43:59;;;;;;;18.73;9.27;;;2.30;99.90;;;;;;6155172;23;20525;-77
2022/03/18 02:46:26;;;;;;;15.73;8.85;;;2.20;99.90;;;;;;6155224;23;20452;-78
2022/03/18 02:48:51;;;;;;;19.20;8.63;;;2.20;99.90;;;;;;6105819;23;20024;-77
2022/03/18 02:51:18;;;;;;;21.48;8.40;;;2.10;99.90;;;;;;6154591;23;20213;-77
2022/03/18 02:53:43;;;;;;;17.13;8.50;;;2.10;99.90;;;;;;6154452;23;20400;-77
2022/03/18 02:56:09;;;;;;;18.25;9.10;;;2.10;99.90;;;;;;6155265;23;20016;-77
2022/03/18 02:58:35;;;;;;;18.88;9.43;;;2.10;99.90;;;;;;6130132;23;20416;-77
2022/03/18 03:01:02;;;;;;;21.98;8.70;;;2.40;99.90;;;;;;6154559;23;20079;-77
2022/03/18 03:03:29;;;;;;;18.33;10.07;;;2.10;99.90;;;;;;6154833;23;20380;-77
2022/03/18 03:08:56;;;;;;;18.35;9.98;;;2.00;99.90;;;;;;6106931;23;20033;-77
2022/03/18 03:11:22;;;;;;;26.08;9.70;;;2.00;99.90;;;;;;6147682;23;20020;-78
2022/03/18 03:13:49;;;;;;;20.77;9.57;;;2.10;99.90;;;;;;6130409;23;20027;-77
2022/03/18 03:16:15;;;;;;;20.52;9.65;;;2.10;99.90;;;;;;6130579;23;20017;-77
2022/03/18 03:18:41;;;;;;;20.75;9.77;;;2.10;99.90;;;;;;6154324;23;20511;-77
2022/03/18 03:21:16;;;;;;;20.42;10.35;;;2.10;99.90;;;;;;5092883;27;20912;-76
2022/03/18 03:23:42;;;;;;;18.77;9.48;;;2.00;99.90;;;;;;5066612;28;20103;-76
2022/03/18 03:26:08;;;;;;;20.35;9.60;;;2.00;99.90;;;;;;5069861;28;20047;-76
2022/03/18 03:28:34;;;;;;;23.42;9.65;;;2.00;99.90;;;;;;5069367;28;20042;-76
2022/03/18 03:31:00;;;;;;;19.30;9.70;;;2.30;99.90;;;;;;5077837;28;20040;-76
2022/03/18 03:33:26;;;;;;;25.05;9.98;;;2.00;99.90;;;;;;5062756;28;20048;-76
2022/03/18 03:35:53;;;;;;;22.98;9.35;;;2.10;99.90;;;;;;5059483;28;20041;-76
2022/03/18 03:38:20;;;;;;;21.77;10.05;;;2.10;99.90;;;;;;5048129;28;20052;-76
2022/03/18 03:40:47;;;;;;;21.40;9.15;;;2.30;99.90;;;;;;5064824;28;20090;-76
2022/03/18 03:43:13;;;;;;;18.73;9.77;;;2.10;99.90;;;;;;5058336;28;20029;-76
2022/03/18 03:45:39;;;;;;;19.90;9.63;;;2.10;99.90;;;;;;5051965;28;20083;-76
2022/03/18 03:48:06;;;;;;;25.88;8.98;;;2.10;99.90;;;;;;5111003;28;20098;-76
2022/03/18 03:50:33;;;;;;;17.17;9.32;;;2.10;99.90;;;;;;5080907;28;20117;-76
2022/03/18 03:52:59;;;;;;;20.20;9.48;;;2.20;99.90;;;;;;5062184;28;20040;-76
2022/03/18 03:55:25;;;;;;;21.30;9.93;;;2.40;99.90;;;;;;5076232;28;20046;-76
2022/03/18 03:57:51;;;;;;;20.63;9.95;;;2.50;99.90;;;;;;5075400;28;20400;-76
2022/03/18 04:00:17;;;;;;;19.92;9.38;;;2.30;99.90;;;;;;5069871;28;20443;-76
2022/03/18 04:02:45;;;;;;;18.60;9.20;;;2.20;99.90;;;;;;5076657;28;20028;-76
2022/03/18 04:05:11;;;;;;;16.85;9.02;;;2.10;99.90;;;;;;5056417;28;20095;-76
2022/03/18 04:07:39;;;;;;;22.58;9.32;;;2.10;99.90;;;;;;5063016;28;20024;-76
2022/03/18 04:10:06;;;;;;;24.00;9.98;;;2.10;99.90;;;;;;5085824;28;20292;-76
2022/03/18 04:12:35;;;;;;;20.35;9.30;;;2.10;99.90;;;;;;5066259;28;20040;-76
2022/03/18 04:15:05;;;;;;;16.70;9.05;;;2.10;99.90;;;;;;5066004;28;20036;-76
2022/03/18 04:17:37;;;;;;;17.23;8.65;;;2.20;99.90;;;;;;5076126;28;20045;-76
2022/03/18 04:20:05;;;;;;;24.48;10.20;;;2.20;99.90;;;;;;5064843;28;20056;-76
2022/03/18 04:22:31;;;;;;;22.67;8.50;;;2.20;99.90;;;;;;5045005;28;20504;-76
2022/03/18 04:24:57;;;;;;;17.85;8.50;;;2.20;99.90;;;;;;5031633;28;20032;-76
2022/03/18 04:27:23;;;;;;;17.42;9.13;;;2.20;99.90;;;;;;5059607;28;20024;-76
2022/03/18 04:29:49;;;;;;;17.60;8.77;;;2.20;99.90;;;;;;5044343;28;20040;-76
2022/03/18 04:32:14;;;;;;;17.98;8.40;;;2.20;99.90;;;;;;5067569;28;20094;-76
2022/03/18 04:34:40;;;;;;;17.60;8.35;;;2.40;99.90;;;;;;5047750;28;20127;-76
2022/03/18 04:37:06;;;;;;;22.27;9.32;;;2.30;99.90;;;;;;5046005;28;20032;-76
2022/03/18 04:39:32;;;;;;;17.20;8.38;;;2.30;99.90;;;;;;5065301;28;20040;-76
2022/03/18 04:41:57;;;;;;;20.80;8.90;;;2.40;99.90;;;;;;5051455;28;20036;-76
2022/03/18 04:44:23;;;;;;;12.23;8.30;;;2.30;99.90;;;;;;5043592;28;20119;-76
2022/03/18 04:46:49;;;;;;;14.50;7.35;;;2.30;99.90;;;;;;5090427;28;20034;-76
2022/03/18 04:49:16;;;;;;;16.50;8.13;;;2.40;99.90;;;;;;5051983;28;20044;-76
2022/03/18 04:51:42;;;;;;;12.00;6.82;;;2.40;99.90;;;;;;5048697;28;20386;-76
2022/03/18 04:54:08;;;;;;;16.60;7.88;;;2.40;99.90;;;;;;5068516;28;20123;-76
2022/03/18 04:59:19;;;;;;;19.30;7.85;;;2.40;99.90;;;;;;5080267;28;20047;-76
2022/03/18 05:01:46;;;;;;;14.00;7.70;;;2.90;99.90;;;;;;5051071;28;20043;-76
2022/03/18 05:04:12;;;;;;;15.30;7.45;;;2.50;99.90;;;;;;5052001;28;20036;-76
2022/03/18 05:06:39;;;;;;;20.35;7.75;;;2.50;99.90;;;;;;5062225;28;20047;-76
2022/03/18 05:09:05;;;;;;;14.43;8.27;;;2.60;99.90;;;;;;5093315;28;20048;-76
2022/03/18 05:11:31;;;;;;;15.90;7.25;;;2.40;99.90;;;;;;5073795;28;20553;-76
2022/03/18 05:14:00;;;;;;;12.27;7.47;;;2.80;99.90;;;;;;5045677;28;20166;-76
2022/03/18 05:16:26;;;;;;;18.65;8.35;;;2.40;99.90;;;;;;5075149;28;20055;-76
2022/03/18 05:18:52;;;;;;;14.95;8.77;;;2.40;99.90;;;;;;5064151;28;20041;-76
2022/03/18 05:21:19;;;;;;;18.23;8.77;;;2.40;99.90;;;;;;5075681;28;20050;-76
2022/03/18 05:23:46;;;;;;;17.05;8.25;;;2.40;99.90;;;;;;5049523;28;20029;-76
2022/03/18 05:26:12;;;;;;;19.20;8.43;;;2.30;99.90;;;;;;5046821;28;20036;-76
2022/03/18 05:28:37;;;;;;;20.80;8.18;;;2.30;99.90;;;;;;5052417;28;20036;-76
2022/03/18 05:31:03;;;;;;;12.70;8.27;;;2.20;99.90;;;;;;5066008;28;20047;-76
2022/03/18 05:33:29;;;;;;;15.90;8.95;;;2.20;99.90;;;;;;5051529;28;20049;-76
2022/03/18 05:35:55;;;;;;;18.25;8.85;;;2.20;99.90;;;;;;5038895;28;20036;-76
2022/03/18 05:38:20;;;;;;;16.20;8.27;;;2.10;99.90;;;;;;5033726;28;20047;-76
2022/03/18 05:40:47;;;;;;;17.10;8.30;;;2.10;99.90;;;;;;5067405;28;20040;-76
2022/03/18 05:43:13;;;;;;;14.38;8.60;;;2.00;99.90;;;;;;5048333;28;20059;-76
2022/03/18 05:45:39;;;;;;;14.35;8.60;;;1.90;99.90;;;;;;5049905;28;20558;-76
2022/03/18 05:48:06;;;;;;;15.63;8.35;;;1.80;99.90;;;;;;5050626;28;20040;-76
2022/03/18 05:50:33;;;;;;;15.95;8.80;;;1.80;99.90;;;;;;5064615;28;20040;-76
2022/03/18 05:52:59;;;;;;;17.55;9.02;;;2.20;99.90;;;;;;5062633;28;20551;-76
2022/03/18 05:55:26;;;;;;;18.02;10.10;;;1.70;99.90;;;;;;5075184;28;20036;-76
2022/03/18 05:57:52;;;;;;;16.25;9.57;;;1.70;99.90;;;;;;5067861;28;20040;-76
2022/03/18 06:00:18;;;;;;;18.30;10.02;;;2.10;99.90;;;;;;5042392;28;20091;-76
2022/03/18 06:02:45;;;;;;;20.70;9.95;;;1.90;99.90;;;;;;5048086;28;20044;-76
2022/03/18 06:05:11;;;;;;;19.38;9.75;;;1.90;99.90;;;;;;5059826;28;20106;-76
2022/03/18 06:07:37;;;;;;;18.83;10.43;;;1.80;99.90;;;;;;5048403;28;20068;-76
2022/03/18 06:12:47;;;;;;;18.13;9.65;;;1.80;99.90;;;;;;5076292;28;20380;-76
2022/03/18 06:15:13;;;;;;;17.17;9.38;;;1.80;99.90;;;;;;5048284;28;20098;-76
2022/03/18 06:17:39;;;;;;;17.90;9.70;;;1.80;99.90;;;;;;5063431;28;20047;-76
2022/03/18 06:20:05;;;;;;;19.05;9.60;;;2.10;99.90;;;;;;5059222;28;20136;-76
2022/03/18 06:22:31;;;;;;;16.52;10.02;;;1.70;99.90;;;;;;5046570;28;20127;-77
2022/03/18 06:24:57;;;;;;;15.50;10.52;;;1.80;99.90;;;;;;5065814;28;20115;-77
2022/03/18 06:27:23;;;;;;;15.32;10.05;;;1.60;99.90;;;;;;5048149;28;20401;-77
2022/03/18 06:29:48;;;;;;;17.13;10.85;;;1.90;99.90;;;;;;5032499;28;20449;-77
2022/03/18 06:32:14;;;;;;;18.63;11.75;;;1.60;99.90;;;;;;5062937;28;20097;-77
2022/03/18 06:34:40;;;;;;;18.88;10.88;;;1.60;99.90;;;;;;5048067;28;20613;-77
2022/03/18 06:37:06;;;;;;;19.02;11.18;;;1.60;99.90;;;;;;5050004;28;20045;-77
2022/03/18 06:39:32;;;;;;;15.93;10.95;;;1.60;99.90;;;;;;5067072;28;20047;-77
2022/03/18 06:41:57;;;;;;;25.02;12.45;;;1.90;99.90;;;;;;5030392;28;20443;-77
2022/03/18 06:44:23;;;;;;;20.52;11.30;;;2.10;99.90;;;;;;5049046;28;20029;-77
2022/03/18 06:46:49;;;;;;;23.58;11.50;;;1.80;99.90;;;;;;5061999;28;20028;-77
2022/03/18 06:49:15;;;;;;;21.08;11.85;;;1.90;99.90;;;;;;5063477;28;20123;-77
2022/03/18 06:51:41;;;;;;;17.25;11.60;;;1.90;99.90;;;;;;5041750;28;20494;-77
2022/03/18 06:54:08;;;;;;;16.83;11.65;;;2.00;99.90;;;;;;5060664;28;20150;-77
2022/03/18 06:56:34;;;;;;;21.50;13.50;;;2.10;99.90;;;;;;5042141;28;20406;-77
2022/03/18 06:59:00;;;;;;;13.15;10.32;;;2.20;99.90;;;;;;5049667;28;20036;-77
2022/03/18 07:01:26;;;;;;;18.65;11.63;;;2.20;99.90;;;;;;5048344;28;20040;-77
2022/03/18 07:03:52;;;;;;;21.70;11.20;;;2.30;99.90;;;;;;5046523;28;20586;-77
2022/03/18 07:06:18;;;;;;;22.45;11.23;;;2.60;99.90;;;;;;5064998;28;20409;-77
2022/03/18 07:08:44;;;;;;;22.88;11.18;;;2.40;99.90;;;;;;5063992;28;20051;-77
2022/03/18 07:11:13;;;;;;;23.60;12.57;;;2.60;99.90;;;;;;5065567;28;20044;-77
2022/03/18 07:13:43;;;;;;;18.83;12.00;;;2.60;99.90;;;;;;5048406;28;20037;-77
2022/03/18 07:18:54;;;;;;;21.45;11.55;;;2.90;99.90;;;;;;5045018;28;20048;-77
2022/03/18 07:21:20;;;;;;;24.92;12.57;;;3.00;99.90;;;;;;5049116;28;20123;-77
2022/03/18 07:23:46;;;;;;;22.00;12.55;;;3.10;99.90;;;;;;5049272;28;20040;-77
2022/03/18 07:26:12;;;;;;;21.42;12.95;;;3.20;99.90;;;;;;5055431;28;20038;-77
2022/03/18 07:28:37;;;;;;;23.10;13.55;;;3.40;99.90;;;;;;5053259;28;20036;-77
2022/03/18 07:31:03;;;;;;;26.92;13.48;;;3.50;99.90;;;;;;5041784;28;20565;-77
2022/03/18 07:33:29;;;;;;;20.45;14.13;;;3.80;99.90;;;;;;5049949;28;20566;-76
2022/03/18 07:35:56;;;;;;;25.27;13.00;;;4.00;99.90;;;;;;5063275;28;20059;-77
2022/03/18 07:38:22;;;;;;;23.75;13.20;;;4.20;99.90;;;;;;5066825;28;20119;-77
2022/03/18 07:40:48;;;;;;;23.55;12.38;;;4.30;99.90;;;;;;5088459;28;20056;-76
2022/03/18 07:43:13;;;;;;;22.42;12.80;;;4.50;99.90;;;;;;5056551;28;20039;-77
2022/03/18 07:45:40;;;;;;;26.30;13.38;;;4.90;99.90;;;;;;5046770;28;20036;-77
2022/03/18 07:48:07;;;;;;;20.25;12.60;;;5.20;99.90;;;;;;5060484;28;20046;-77
2022/03/18 07:50:35;;;;;;;19.25;12.15;;;5.70;99.90;;;;;;5064779;28;20040;-77
2022/03/18 07:53:07;;;;;;;21.15;11.63;;;6.30;99.90;;;;;;5061668;28;20047;-77
2022/03/18 07:55:35;;;;;;;19.85;11.60;;;6.60;99.90;;;;;;5087566;28;20501;-77
2022/03/18 07:58:01;;;;;;;24.92;11.60;;;7.10;99.90;;;;;;5064957;28;20564;-78
2022/03/18 08:00:27;;;;;;;22.05;10.80;;;7.50;99.90;;;;;;5063694;28;20039;-77
2022/03/18 08:02:54;;;;;;;17.77;10.60;;;7.70;99.90;;;;;;5048645;28;20401;-78
2022/03/18 08:05:20;;;;;;;15.98;10.38;;;8.00;99.90;;;;;;5061502;28;20028;-78
2022/03/18 08:07:46;;;;;;;23.08;10.52;;;8.40;99.90;;;;;;5064688;28;20442;-79
2022/03/18 08:10:13;;;;;;;16.88;10.45;;;8.70;99.90;;;;;;5036659;28;20063;-78
2022/03/18 08:12:41;;;;;;;23.27;11.60;;;8.90;99.90;;;;;;5069639;28;20072;-79
2022/03/18 08:15:12;;;;;;;18.92;11.18;;;9.10;99.90;;;;;;5038671;28;20045;-78
2022/03/18 08:17:39;;;;;;;18.63;10.95;;;9.40;99.90;;;;;;5053549;28;20036;-78
2022/03/18 08:20:07;;;;;;;20.67;11.05;;;9.90;99.90;;;;;;5065824;28;20056;-78
2022/03/18 08:22:32;;;;;;;16.52;11.18;;;10.20;99.90;;;;;;5092832;28;20047;-78
2022/03/18 08:24:58;;;;;;;21.08;10.88;;;10.50;99.90;;;;;;5053834;28;20033;-79
2022/03/18 08:27:24;;;;;;;16.27;9.43;;;11.20;99.90;;;;;;5061701;28;20176;-78
2022/03/18 08:29:50;;;;;;;18.95;10.40;;;11.50;99.90;;;;;;5057610;28;21441;-79
2022/03/18 08:32:17;;;;;;;14.60;10.68;;;12.40;99.90;;;;;;5083272;28;20131;-79
2022/03/18 08:34:43;;;;;;;15.38;10.20;;;12.90;99.90;;;;;;5073800;28;20048;-79
2022/03/18 08:37:10;;;;;;;17.88;10.60;;;13.40;99.90;;;;;;5058408;28;20041;-79
2022/03/18 08:39:41;;;;;;;17.83;10.45;;;13.70;99.90;;;;;;5072812;28;21321;-79
2022/03/18 08:42:07;;;;;;;18.00;10.55;;;14.00;99.30;;;;;;5069272;28;20036;-79
2022/03/18 08:44:33;;;;;;;18.80;10.52;;;14.30;99.40;;;;;;5054642;28;20403;-78
2022/03/18 08:47:00;;;;;;;23.95;10.50;;;14.50;99.30;;;;;;5021963;28;20052;-80
2022/03/18 08:49:26;;;;;;;19.27;10.30;;;14.70;98.50;;;;;;5050377;28;20049;-78
2022/03/18 08:51:52;;;;;;;19.38;10.25;;;14.60;97.70;;;;;;5043425;28;20271;-79
2022/03/18 08:54:21;;;;;;;18.05;10.25;;;14.40;96.90;;;;;;5052852;28;20037;-79
2022/03/18 08:56:48;;;;;;;17.05;10.18;;;14.80;96.60;;;;;;5082453;28;20494;-78
2022/03/18 08:59:14;;;;;;;17.52;10.32;;;15.20;96.60;;;;;;5057735;28;20050;-79
2022/03/18 09:01:40;;;;;;;18.60;9.57;;;15.40;96.40;;;;;;5065584;28;20509;-79
2022/03/18 09:04:06;;;;;;;19.33;11.05;;;15.90;95.80;;;;;;5089502;28;20024;-79
2022/03/18 09:06:32;;;;;;;22.00;10.70;;;15.80;95.00;;;;;;5008667;28;20463;-79
2022/03/18 09:09:02;;;;;;;18.55;10.77;;;16.20;94.40;;;;;;5069160;28;20044;-80
2022/03/18 09:11:29;;;;;;;14.63;9.77;;;15.80;93.60;;;;;;5027211;28;20045;-76
2022/03/18 09:13:54;;;;;;;15.35;9.77;;;16.30;93.80;;;;;;5070483;28;20119;-76
2022/03/18 09:16:20;;;;;;;16.83;10.25;;;16.70;93.50;;;;;;5039835;28;20120;-76
2022/03/18 09:18:46;;;;;;;24.33;10.45;;;16.80;93.50;;;;;;5054441;28;20103;-77
2022/03/18 09:21:13;;;;;;;17.70;9.63;;;16.80;93.30;;;;;;5040430;28;20505;-76
2022/03/18 09:23:39;;;;;;;16.80;9.85;;;17.00;93.10;;;;;;5076020;28;20118;-76
2022/03/18 09:26:05;;;;;;;16.67;9.52;;;17.20;92.70;;;;;;5039867;28;20123;-78
2022/03/18 09:28:31;;;;;;;16.08;9.73;;;17.30;92.30;;;;;;5073233;28;20044;-78
2022/03/18 09:30:57;;;;;;;15.93;9.93;;;17.10;92.30;;;;;;5054450;28;20036;-78
2022/03/18 09:33:23;;;;;;;15.82;9.40;;;17.30;92.20;;;;;;5040342;28;20033;-79
2022/03/18 09:35:49;;;;;;;17.55;10.27;;;17.60;92.00;;;;;;5025523;28;20116;-79
2022/03/18 09:38:15;;;;;;;21.23;10.60;;;17.70;91.50;;;;;;5053533;28;20044;-79
2022/03/18 09:40:42;;;;;;;19.58;10.02;;;18.10;91.60;;;;;;5039458;28;20045;-78
2022/03/18 09:43:09;;;;;;;18.63;10.05;;;18.50;91.00;;;;;;5055979;28;20524;-79
2022/03/18 09:45:38;;;;;;;15.27;9.18;;;18.70;90.40;;;;;;5071684;28;20051;-79
2022/03/18 09:48:06;;;;;;;18.10;9.60;;;18.90;89.10;;;;;;5072214;28;20037;-79
2022/03/18 09:50:32;;;;;;;21.88;9.68;;;19.00;88.00;;;;;;5038593;28;20049;-80
2022/03/18 09:52:59;;;;;;;22.50;9.45;;;19.20;88.20;;;;;;5005057;28;20041;-79
2022/03/18 09:55:25;;;;;;;15.95;9.82;;;19.50;87.80;;;;;;5067401;28;20084;-79
2022/03/18 09:57:52;;;;;;;20.80;9.90;;;19.30;86.70;;;;;;5055510;28;20040;-79
2022/03/18 10:00:18;;;;;;;18.10;9.38;;;19.30;86.00;;;;;;5038053;28;20461;-80
2022/03/18 10:02:44;;;;;;;16.33;9.55;;;19.70;85.30;;;;;;5071526;28;20040;-80
2022/03/18 10:05:10;;;;;;;16.63;8.93;;;19.60;84.60;;;;;;5042943;28;20032;-81
2022/03/18 10:07:37;;;;;;;15.73;9.13;;;20.00;84.30;;;;;;5055891;28;20049;-80
2022/03/18 10:10:11;;;;;;;17.52;9.70;;;19.80;82.90;;;;;;5025689;28;20605;-79
2022/03/18 10:12:38;;;;;;;18.17;10.15;;;19.70;82.10;;;;;;5042436;28;20055;-79
2022/03/18 10:15:06;;;;;;;15.93;10.00;;;19.50;81.90;;;;;;5037825;28;20132;-79
2022/03/18 10:17:59;;;;;;;16.23;9.90;;;19.70;82.20;;;;;;5041618;28;20037;-79
2022/03/18 10:20:32;;;;;;;15.15;10.40;;;19.50;79.50;;;;;;5036842;28;20444;-77
2022/03/18 10:23:25;;;;;;;17.50;9.95;;;19.60;81.30;;;;;;5057748;28;20119;-81
2022/03/18 10:25:53;;;;;;;15.98;10.55;;;19.50;78.80;;;;;;5073695;28;20041;-80
2022/03/18 10:28:37;;;;;;;17.90;10.00;;;19.50;80.70;;;;;;5037437;28;20029;-80
2022/03/18 10:31:18;;;;;;;19.00;10.40;;;20.00;79.90;;;;;;5056441;28;20405;-80
2022/03/18 10:37:11;;;;;;;15.52;9.13;;;20.20;78.70;;;;;;5036911;28;20053;-80
2022/03/18 10:39:45;;;;;;;18.38;11.10;;;20.10;78.00;;;;;;5024649;28;20179;-81
2022/03/18 10:42:16;;;;;;;17.75;9.95;;;19.80;79.00;;;;;;5071658;28;20044;-82
2022/03/18 10:44:52;;;;;;;16.92;9.77;;;19.70;79.30;;;;;;5023990;28;20040;-81
2022/03/18 10:47:26;;;;;;;17.23;10.00;;;19.80;79.20;;;;;;5076408;28;20036;-82
2022/03/18 10:49:54;;;;;;;18.45;9.85;;;20.00;79.30;;;;;;5061381;28;20128;-82
2022/03/18 10:52:23;;;;;;;22.58;10.60;;;19.80;80.20;;;;;;5031505;28;20052;-79
2022/03/18 10:54:51;;;;;;;18.83;9.95;;;20.00;79.00;;;;;;5001787;28;20048;-80
2022/03/18 10:57:17;;;;;;;18.35;9.52;;;19.50;80.60;;;;;;5051350;28;20041;-81
2022/03/18 10:59:43;;;;;;;18.48;9.45;;;19.80;80.20;;;;;;5020335;28;20064;-81
2022/03/18 11:02:14;;;;;;;19.42;10.15;;;19.20;80.90;;;;;;5032863;28;20136;-81
2022/03/18 11:04:41;;;;;;;16.77;10.10;;;19.20;80.70;;;;;;5073536;28;20587;-81
2022/03/18 11:12:43;;;;;;;15.77;10.63;;;19.50;80.20;;;;;;5037611;28;20719;-81
2022/03/18 11:15:10;;;;;;;20.40;10.15;;;19.40;81.00;;;;;;5057406;28;20048;-81
2022/03/18 11:17:38;;;;;;;14.75;8.95;;;19.30;80.90;;;;;;5053755;28;20064;-81
2022/03/18 11:20:05;;;;;;;17.80;8.82;;;19.00;79.70;;;;;;5039379;28;20051;-82
2022/03/18 11:22:33;;;;;;;18.48;9.40;;;18.60;79.80;;;;;;5054587;28;20498;-81
2022/03/18 11:25:00;;;;;;;17.65;9.30;;;18.80;80.80;;;;;;5044740;28;20462;-82
2022/03/18 11:27:26;;;;;;;13.07;9.63;;;18.80;81.00;;;;;;5053233;28;20025;-83
2022/03/18 11:30:18;;;;;;;17.48;8.40;;;18.90;82.00;;;;;;5040309;28;20650;-82
2022/03/18 11:33:04;;;;;;;17.07;8.73;;;19.00;80.60;;;;;;5054305;28;20760;-82
2022/03/18 11:35:52;;;;;;;15.80;9.00;;;18.50;81.90;;;;;;5052259;28;20656;-78
2022/03/18 11:38:25;;;;;;;15.85;9.10;;;18.10;83.30;;;;;;5025273;28;20072;-78
2022/03/18 11:40:59;;;;;;;17.45;8.15;;;17.90;83.70;;;;;;5060532;28;20052;-79
2022/03/18 11:43:58;;;;;;;12.88;7.72;;;17.60;83.60;;;;;;5050943;28;20063;-79
2022/03/18 11:46:26;;;;;;;12.02;7.40;;;17.40;83.90;;;;;;5042223;28;20549;-76
2022/03/18 11:48:53;;;;;;;15.85;8.50;;;17.30;84.50;;;;;;5042371;28;20036;-77
2022/03/18 11:51:31;;;;;;;15.32;8.35;;;17.30;84.30;;;;;;5092123;28;20039;-78
2022/03/18 11:54:01;;;;;;;12.27;8.20;;;17.30;84.60;;;;;;5059308;28;20038;-79
2022/03/18 11:56:46;;;;;;;14.27;8.82;;;17.20;85.10;;;;;;5081319;28;20076;-77
2022/03/18 11:59:47;;;;;;;16.00;7.80;;;17.10;84.90;;;;;;5049940;28;20116;-77
2022/03/18 12:02:13;;;;;;;10.80;5.13;;;17.20;84.40;;;;;;5031547;28;20048;-77
2022/03/18 12:04:48;;;;;;;12.55;6.25;;;17.10;83.70;;;;;;5050163;28;20401;-77
2022/03/18 12:07:19;;;;;;;12.10;6.82;;;17.10;84.20;;;;;;5023369;28;20490;-77
2022/03/18 12:10:05;;;;;;;12.77;6.55;;;17.10;85.00;;;;;;5022830;28;20406;-77
2022/03/18 12:12:45;;;;;;;10.68;6.47;;;17.30;84.30;;;;;;5037933;28;20048;-77
2022/03/18 12:15:17;;;;;;;14.82;7.30;;;17.30;83.80;;;;;;5039020;28;20160;-78
2022/03/18 12:17:48;;;;;;;16.52;6.43;;;17.30;85.40;;;;;;5088185;28;20048;-78
2022/03/18 12:20:21;;;;;;;12.85;6.45;;;17.40;84.70;;;;;;5051629;28;20103;-78
2022/03/18 12:22:48;;;;;;;17.35;7.30;;;17.50;84.20;;;;;;5026987;28;20111;-82
2022/03/18 12:25:14;;;;;;;10.85;6.22;;;17.50;84.60;;;;;;5056666;28;20044;-78
2022/03/18 12:27:43;;;;;;;10.95;5.30;;;17.40;84.40;;;;;;5049031;28;20043;-78
2022/03/18 12:30:12;;;;;;;13.93;6.25;;;17.50;84.50;;;;;;5013362;28;20116;-78
2022/03/18 12:32:48;;;;;;;9.77;5.85;;;17.50;84.50;;;;;;5003654;28;20049;-78
2022/03/18 12:35:16;;;;;;;14.13;6.38;;;17.50;83.40;;;;;;4991710;28;20034;-79
2022/03/18 12:37:45;;;;;;;14.52;7.35;;;17.60;83.90;;;;;;5005932;28;20033;-79
2022/03/18 12:40:19;;;;;;;15.25;6.95;;;17.60;83.20;;;;;;5026943;28;21762;-79
2022/03/18 12:42:46;;;;;;;13.45;5.97;;;17.60;82.80;;;;;;5026043;28;20510;-81
2022/03/18 12:45:12;;;;;;;11.43;6.57;;;17.60;82.50;;;;;;5027584;28;20653;-80
2022/03/18 12:47:38;;;;;;;12.90;7.10;;;17.60;82.50;;;;;;5032170;28;20526;-79
2022/03/18 12:50:04;;;;;;;12.65;7.35;;;17.70;83.80;;;;;;5032152;28;20395;-80
2022/03/18 12:52:30;;;;;;;12.82;7.07;;;17.50;83.90;;;;;;5046616;28;20507;-79
2022/03/18 12:55:12;;;;;;;15.15;5.40;;;17.80;83.80;;;;;;5043785;28;20319;-80
2022/03/18 12:57:39;;;;;;;12.13;5.03;;;17.90;80.90;;;;;;5031691;28;20040;-80
2022/03/18 13:00:08;;;;;;;10.00;5.55;;;17.80;80.50;;;;;;5041154;28;20041;-79
2022/03/18 13:02:37;;;;;;;14.68;6.00;;;17.70;80.30;;;;;;5001931;28;20090;-82
2022/03/18 13:05:05;;;;;;;10.05;4.93;;;17.70;81.60;;;;;;5016895;28;20064;-81
2022/03/18 13:07:31;;;;;;;12.13;5.05;;;17.90;81.30;;;;;;5025231;28;20041;-81
2022/03/18 13:09:57;;;;;;;10.23;5.13;;;18.10;80.10;;;;;;5035888;28;20040;-80